Cse Wisdom Express — 3FVD8 — position and weather

sailwx.info

Track history (hours):
 
Tides and Currents Weather Stations Pressure Air Temp Water Temp Dewpoint Dewpoint Depression Visibility Wind Speed Wind Dir Waves Ship Positions

Cse Wisdom Express

Last reported at 2017-Dec-09 15:47 UTC. Time now 2017-Dec-12 10:30 UTC.
Position N 25°41' E 121°58'.

Length 122 m; draft 9.3 m.

Type: Cargo ship. MMSI: 372522000.

Date/timePositionNaut miles runAvg speedWind from/ knotsBaromVisibWave heightAir tempDewpointWater temp
2017-Dec-09 15:47N 25°41' E 121°58'412.9
2017-Dec-09 15:30N 25°40' E 121°55'612.8
2017-Dec-09 15:00N 25°36' E 121°49'713.1
2017-Dec-09 14:31N 25°32' E 121°43'612.8
2017-Dec-09 14:00N 25°28' E 121°38'612.7
2017-Dec-09 13:30N 25°24' E 121°33'713.1
2017-Dec-09 13:00N 25°21' E 121°26'713.4
2017-Dec-09 12:31N 25°17' E 121°20'713.5
2017-Dec-09 12:00N 25°14' E 121°13'713.9
2017-Dec-09 11:30N 25°10' E 121°07'713.5
2017-Dec-09 10:57N 25°06' E 121°00'813.3
2017-Dec-09 10:19N 24°59' E 120°55'412.5
2017-Dec-09 10:00N 24°55' E 120°53'8910.6
2017-Dec-09 01:36N 23°41' E 119°59'1910.7
2017-Dec-08 23:51N 23°23' E 119°57'3 9.6
2017-Dec-08 23:30N 23°19' E 119°57'6 9.4
2017-Dec-08 22:53N 23°13' E 119°57'4 9.5
2017-Dec-08 22:28N 23°10' E 119°57'4 9.2
2017-Dec-08 22:00N 23°05' E 119°57'5 9.2
2017-Dec-08 21:31N 23°01' E 119°58'510.4
2017-Dec-08 21:00N 22°56' E 120°01'5 9.3
2017-Dec-08 20:30N 22°52' E 120°02'612.1
2017-Dec-08 20:00N 22°56' E 119°58'612.8
2017-Dec-08 19:30N 23°02' E 119°56'1 2.0
2017-Dec-08 18:56N 23°03' E 119°57'410.4
2017-Dec-08 18:30N 22°59' E 119°59'511.0
2017-Dec-08 18:00N 22°54' E 120°01'611.0
2017-Dec-08 17:30N 22°49' E 120°03'3 5.8
2017-Dec-08 17:00N 22°46' E 120°04'611.4
2017-Dec-08 16:30N 22°51' E 120°01'611.1
2017-Dec-08 16:00N 22°56' E 119°59'611.1
2017-Dec-08 15:30N 23°01' E 119°57'810.9
2017-Dec-08 14:46N 23°09' E 119°57'511.9
2017-Dec-08 14:22N 23°14' E 119°57'612.5
2017-Dec-08 13:51N 23°20' E 119°56'613.3
2017-Dec-08 13:26N 23°26' E 119°57'613.6
2017-Dec-08 13:00N 23°32' E 119°57'713.5
2017-Dec-08 12:31N 23°38' E 119°57'9013.3
2017-Dec-08 05:46N 24°54' E 120°51'1613.1
2017-Dec-08 04:31N 25°05' E 121°04'015.0
2017-Dec-08 04:29N 25°05' E 121°04'713.7
2017-Dec-08 03:58N 25°10' E 121°10'613.3
2017-Dec-08 03:30N 25°13' E 121°16'3 6.7
2017-Dec-08 03:00N 25°12' E 121°20'0 0.3
2017-Dec-08 02:30N 25°12' E 121°20'4 6.9
2017-Dec-08 02:00N 25°16' E 121°21'4 7.7
2017-Dec-08 01:30N 25°19' E 121°23'812.4
2017-Dec-08 00:49N 25°26' E 121°29'411.7
2017-Dec-08 00:30N 25°29' E 121°31'611.9
2017-Dec-08 00:01N 25°34' E 121°35'510.9
2017-Dec-07 23:30N 25°39' E 121°38'2 4.8
2017-Dec-07 23:00N 25°36' E 121°38'2 4.6
2017-Dec-07 22:31N 25°34' E 121°37'2 4.6
2017-Dec-07 22:00N 25°32' E 121°36'3 5.5
2017-Dec-07 21:30N 25°30' E 121°35'3 6.8
2017-Dec-07 21:00N 25°27' E 121°33'5 9.6
2017-Dec-07 20:31N 25°24' E 121°29'510.5
2017-Dec-07 20:00N 25°21' E 121°24'510.6
2017-Dec-07 19:30N 25°18' E 121°19'510.7
2017-Dec-07 19:00N 25°15' E 121°14'510.8
2017-Dec-07 18:31N 25°12' E 121°09'510.5
2017-Dec-07 17:59N 25°09' E 121°05'610.3
2017-Dec-07 17:24N 25°04' E 121°00'510.0
2017-Dec-07 16:54N 25°00' E 120°57'5 9.7
2017-Dec-07 16:25N 24°56' E 120°54'4 9.4
2017-Dec-07 16:00N 24°53' E 120°51'103 9.1
2017-Dec-07 04:39N 23°23' E 119°57'512.9
2017-Dec-07 04:16N 23°18' E 119°57'413.4
2017-Dec-07 04:00N 23°15' E 119°57'713.3
2017-Dec-07 03:30N 23°08' E 119°56'713.2
2017-Dec-07 03:00N 23°02' E 119°58'612.4
2017-Dec-07 02:30N 22°56' E 120°00'713.6
2017-Dec-07 02:01N 22°50' E 120°02'713.0
2017-Dec-07 01:30N 22°44' E 120°05'612.6
2017-Dec-07 01:00N 22°38' E 120°08'612.0
2017-Dec-07 00:30N 22°33' E 120°12'611.7
2017-Dec-07 00:00N 22°33' E 120°18'3 4.8
2017-Dec-06 23:27N 22°33' E 120°21'0 0.0
2017-Dec-06 23:00N 22°33' E 120°21'0 0.0
2017-Dec-06 22:30N 22°33' E 120°21'0 0.0
2017-Dec-06 22:00N 22°33' E 120°21'0 0.0
2017-Dec-06 21:30N 22°33' E 120°21'0 0.0
2017-Dec-06 21:00N 22°33' E 120°21'  
Track history (hours):
 
Tides and Currents Weather Stations Pressure Air Temp Water Temp Dewpoint Dewpoint Depression Visibility Wind Speed Wind Dir Waves Ship Positions

Cse Wisdom Express

Last reported at 2017-Dec-09 15:47 UTC. Time now 2017-Dec-12 10:30 UTC.
Position N 25°41' E 121°58'.

Length 122 m; draft 9.3 m.

Type: Cargo ship. MMSI: 372522000.

Date/timePositionNaut miles runAvg speedWind from/ knotsBaromVisibWave heightAir tempDewpointWater temp
2017-Dec-09 15:47N 25°41' E 121°58'412.9
2017-Dec-09 15:30N 25°40' E 121°55'612.8
2017-Dec-09 15:00N 25°36' E 121°49'713.1
2017-Dec-09 14:31N 25°32' E 121°43'612.8
2017-Dec-09 14:00N 25°28' E 121°38'612.7
2017-Dec-09 13:30N 25°24' E 121°33'713.1
2017-Dec-09 13:00N 25°21' E 121°26'713.4
2017-Dec-09 12:31N 25°17' E 121°20'713.5
2017-Dec-09 12:00N 25°14' E 121°13'713.9
2017-Dec-09 11:30N 25°10' E 121°07'713.5
2017-Dec-09 10:57N 25°06' E 121°00'813.3
2017-Dec-09 10:19N 24°59' E 120°55'412.5
2017-Dec-09 10:00N 24°55' E 120°53'8910.6
2017-Dec-09 01:36N 23°41' E 119°59'1910.7
2017-Dec-08 23:51N 23°23' E 119°57'3 9.6
2017-Dec-08 23:30N 23°19' E 119°57'6 9.4
2017-Dec-08 22:53N 23°13' E 119°57'4 9.5
2017-Dec-08 22:28N 23°10' E 119°57'4 9.2
2017-Dec-08 22:00N 23°05' E 119°57'5 9.2
2017-Dec-08 21:31N 23°01' E 119°58'510.4
2017-Dec-08 21:00N 22°56' E 120°01'5 9.3
2017-Dec-08 20:30N 22°52' E 120°02'612.1
2017-Dec-08 20:00N 22°56' E 119°58'612.8
2017-Dec-08 19:30N 23°02' E 119°56'1 2.0
2017-Dec-08 18:56N 23°03' E 119°57'410.4
2017-Dec-08 18:30N 22°59' E 119°59'511.0
2017-Dec-08 18:00N 22°54' E 120°01'611.0
2017-Dec-08 17:30N 22°49' E 120°03'3 5.8
2017-Dec-08 17:00N 22°46' E 120°04'611.4
2017-Dec-08 16:30N 22°51' E 120°01'611.1
2017-Dec-08 16:00N 22°56' E 119°59'611.1
2017-Dec-08 15:30N 23°01' E 119°57'810.9
2017-Dec-08 14:46N 23°09' E 119°57'511.9
2017-Dec-08 14:22N 23°14' E 119°57'612.5
2017-Dec-08 13:51N 23°20' E 119°56'613.3
2017-Dec-08 13:26N 23°26' E 119°57'613.6
2017-Dec-08 13:00N 23°32' E 119°57'713.5
2017-Dec-08 12:31N 23°38' E 119°57'9013.3
2017-Dec-08 05:46N 24°54' E 120°51'1613.1
2017-Dec-08 04:31N 25°05' E 121°04'015.0
2017-Dec-08 04:29N 25°05' E 121°04'713.7
2017-Dec-08 03:58N 25°10' E 121°10'613.3
2017-Dec-08 03:30N 25°13' E 121°16'3 6.7
2017-Dec-08 03:00N 25°12' E 121°20'0 0.3
2017-Dec-08 02:30N 25°12' E 121°20'4 6.9
2017-Dec-08 02:00N 25°16' E 121°21'4 7.7
2017-Dec-08 01:30N 25°19' E 121°23'812.4
2017-Dec-08 00:49N 25°26' E 121°29'411.7
2017-Dec-08 00:30N 25°29' E 121°31'611.9
2017-Dec-08 00:01N 25°34' E 121°35'510.9
2017-Dec-07 23:30N 25°39' E 121°38'2 4.8
2017-Dec-07 23:00N 25°36' E 121°38'2 4.6
2017-Dec-07 22:31N 25°34' E 121°37'2 4.6
2017-Dec-07 22:00N 25°32' E 121°36'3 5.5
2017-Dec-07 21:30N 25°30' E 121°35'3 6.8
2017-Dec-07 21:00N 25°27' E 121°33'5 9.6
2017-Dec-07 20:31N 25°24' E 121°29'510.5
2017-Dec-07 20:00N 25°21' E 121°24'510.6
2017-Dec-07 19:30N 25°18' E 121°19'510.7
2017-Dec-07 19:00N 25°15' E 121°14'510.8
2017-Dec-07 18:31N 25°12' E 121°09'510.5
2017-Dec-07 17:59N 25°09' E 121°05'610.3
2017-Dec-07 17:24N 25°04' E 121°00'510.0
2017-Dec-07 16:54N 25°00' E 120°57'5 9.7
2017-Dec-07 16:25N 24°56' E 120°54'4 9.4
2017-Dec-07 16:00N 24°53' E 120°51'103 9.1
2017-Dec-07 04:39N 23°23' E 119°57'512.9
2017-Dec-07 04:16N 23°18' E 119°57'413.4
2017-Dec-07 04:00N 23°15' E 119°57'713.3
2017-Dec-07 03:30N 23°08' E 119°56'713.2
2017-Dec-07 03:00N 23°02' E 119°58'612.4
2017-Dec-07 02:30N 22°56' E 120°00'713.6
2017-Dec-07 02:01N 22°50' E 120°02'713.0
2017-Dec-07 01:30N 22°44' E 120°05'612.6
2017-Dec-07 01:00N 22°38' E 120°08'612.0
2017-Dec-07 00:30N 22°33' E 120°12'611.7
2017-Dec-07 00:00N 22°33' E 120°18'3 4.8
2017-Dec-06 23:27N 22°33' E 120°21'0 0.0
2017-Dec-06 23:00N 22°33' E 120°21'0 0.0
2017-Dec-06 22:30N 22°33' E 120°21'0 0.0
2017-Dec-06 22:00N 22°33' E 120°21'0 0.0
2017-Dec-06 21:30N 22°33' E 120°21'0 0.0
2017-Dec-06 21:00N 22°33' E 120°21'  

Dump ship's entire track history